sensor_id;sensor_type;location;lat;lon;timestamp;P1;durP1;ratioP1;P2;durP2;ratioP2
9160;SDS011;4615;51.340;8.288;2023-04-21T00:01:58;28.73;;;25.92;;
9160;SDS011;4615;51.340;8.288;2023-04-21T00:04:25;29.88;;;27.05;;
9160;SDS011;4615;51.340;8.288;2023-04-21T00:06:52;29.63;;;26.63;;
9160;SDS011;4615;51.340;8.288;2023-04-21T00:09:19;27.00;;;24.60;;
9160;SDS011;4615;51.340;8.288;2023-04-21T00:11:45;28.58;;;25.90;;
9160;SDS011;4615;51.340;8.288;2023-04-21T00:14:13;27.73;;;25.02;;
9160;SDS011;4615;51.340;8.288;2023-04-21T00:16:39;28.00;;;25.40;;
9160;SDS011;4615;51.340;8.288;2023-04-21T00:19:06;28.27;;;25.60;;
9160;SDS011;4615;51.340;8.288;2023-04-21T00:21:32;27.92;;;25.20;;
9160;SDS011;4615;51.340;8.288;2023-04-21T00:23:59;28.00;;;25.40;;
9160;SDS011;4615;51.340;8.288;2023-04-21T00:26:25;26.27;;;23.70;;
9160;SDS011;4615;51.340;8.288;2023-04-21T00:28:52;25.70;;;23.40;;
9160;SDS011;4615;51.340;8.288;2023-04-21T00:31:19;26.92;;;24.25;;
9160;SDS011;4615;51.340;8.288;2023-04-21T00:33:46;26.67;;;24.17;;
9160;SDS011;4615;51.340;8.288;2023-04-21T00:36:12;25.35;;;23.02;;
9160;SDS011;4615;51.340;8.288;2023-04-21T00:38:38;25.17;;;22.73;;
9160;SDS011;4615;51.340;8.288;2023-04-21T00:41:05;25.60;;;23.20;;
9160;SDS011;4615;51.340;8.288;2023-04-21T00:43:31;24.70;;;22.38;;
9160;SDS011;4615;51.340;8.288;2023-04-21T00:45:58;24.15;;;21.95;;
9160;SDS011;4615;51.340;8.288;2023-04-21T00:48:25;24.97;;;22.57;;
9160;SDS011;4615;51.340;8.288;2023-04-21T00:50:52;24.20;;;21.90;;
9160;SDS011;4615;51.340;8.288;2023-04-21T00:53:18;23.55;;;21.35;;
9160;SDS011;4615;51.340;8.288;2023-04-21T00:55:45;24.00;;;21.77;;
9160;SDS011;4615;51.340;8.288;2023-04-21T00:58:12;23.65;;;21.42;;
9160;SDS011;4615;51.340;8.288;2023-04-21T01:00:38;24.88;;;22.50;;
9160;SDS011;4615;51.340;8.288;2023-04-21T01:03:05;23.40;;;21.27;;
9160;SDS011;4615;51.340;8.288;2023-04-21T01:05:33;24.08;;;21.88;;
9160;SDS011;4615;51.340;8.288;2023-04-21T01:08:00;24.25;;;21.92;;
9160;SDS011;4615;51.340;8.288;2023-04-21T01:10:26;24.27;;;22.08;;
9160;SDS011;4615;51.340;8.288;2023-04-21T01:12:53;24.30;;;22.08;;
9160;SDS011;4615;51.340;8.288;2023-04-21T01:15:19;24.58;;;22.27;;
9160;SDS011;4615;51.340;8.288;2023-04-21T01:17:45;23.95;;;21.77;;
9160;SDS011;4615;51.340;8.288;2023-04-21T01:20:13;24.65;;;22.45;;
9160;SDS011;4615;51.340;8.288;2023-04-21T01:22:41;24.05;;;21.77;;
9160;SDS011;4615;51.340;8.288;2023-04-21T01:25:08;24.27;;;21.98;;
9160;SDS011;4615;51.340;8.288;2023-04-21T01:27:35;24.73;;;22.45;;
9160;SDS011;4615;51.340;8.288;2023-04-21T01:30:02;24.80;;;22.40;;
9160;SDS011;4615;51.340;8.288;2023-04-21T01:32:29;25.98;;;23.60;;
9160;SDS011;4615;51.340;8.288;2023-04-21T01:34:56;25.40;;;23.10;;
9160;SDS011;4615;51.340;8.288;2023-04-21T01:37:23;25.10;;;22.80;;
9160;SDS011;4615;51.340;8.288;2023-04-21T01:39:52;26.77;;;24.25;;
9160;SDS011;4615;51.340;8.288;2023-04-21T01:42:19;25.30;;;22.95;;
9160;SDS011;4615;51.340;8.288;2023-04-21T01:44:45;25.90;;;23.58;;
9160;SDS011;4615;51.340;8.288;2023-04-21T01:47:13;26.13;;;23.70;;
9160;SDS011;4615;51.340;8.288;2023-04-21T01:49:40;27.10;;;24.50;;
9160;SDS011;4615;51.340;8.288;2023-04-21T01:52:06;26.20;;;23.80;;
9160;SDS011;4615;51.340;8.288;2023-04-21T01:54:33;27.83;;;25.23;;
9160;SDS011;4615;51.340;8.288;2023-04-21T01:57:01;27.07;;;24.47;;
9160;SDS011;4615;51.340;8.288;2023-04-21T01:59:28;27.97;;;25.47;;
9160;SDS011;4615;51.340;8.288;2023-04-21T02:01:54;27.75;;;25.23;;
9160;SDS011;4615;51.340;8.288;2023-04-21T02:04:20;27.27;;;24.77;;
9160;SDS011;4615;51.340;8.288;2023-04-21T02:06:47;28.20;;;25.58;;
9160;SDS011;4615;51.340;8.288;2023-04-21T02:09:13;28.20;;;25.70;;
9160;SDS011;4615;51.340;8.288;2023-04-21T02:11:40;29.17;;;26.37;;
9160;SDS011;4615;51.340;8.288;2023-04-21T02:14:07;29.17;;;26.48;;
9160;SDS011;4615;51.340;8.288;2023-04-21T02:16:34;27.33;;;24.83;;
9160;SDS011;4615;51.340;8.288;2023-04-21T02:19:00;29.13;;;26.42;;
9160;SDS011;4615;51.340;8.288;2023-04-21T02:21:27;27.95;;;25.33;;
9160;SDS011;4615;51.340;8.288;2023-04-21T02:23:53;29.23;;;26.52;;
9160;SDS011;4615;51.340;8.288;2023-04-21T02:26:20;29.25;;;26.55;;
9160;SDS011;4615;51.340;8.288;2023-04-21T02:28:46;28.10;;;25.60;;
9160;SDS011;4615;51.340;8.288;2023-04-21T02:31:15;30.08;;;27.30;;
9160;SDS011;4615;51.340;8.288;2023-04-21T02:33:41;30.52;;;27.73;;
9160;SDS011;4615;51.340;8.288;2023-04-21T02:36:07;29.02;;;26.42;;
9160;SDS011;4615;51.340;8.288;2023-04-21T02:38:34;31.40;;;28.48;;
9160;SDS011;4615;51.340;8.288;2023-04-21T02:41:00;30.30;;;27.40;;
9160;SDS011;4615;51.340;8.288;2023-04-21T02:43:27;30.88;;;28.08;;
9160;SDS011;4615;51.340;8.288;2023-04-21T02:45:56;28.38;;;25.77;;
9160;SDS011;4615;51.340;8.288;2023-04-21T02:48:24;30.90;;;28.00;;
9160;SDS011;4615;51.340;8.288;2023-04-21T02:50:51;31.33;;;28.48;;
9160;SDS011;4615;51.340;8.288;2023-04-21T02:53:18;31.73;;;28.67;;
9160;SDS011;4615;51.340;8.288;2023-04-21T02:55:44;30.48;;;27.55;;
9160;SDS011;4615;51.340;8.288;2023-04-21T02:58:11;32.60;;;29.52;;
9160;SDS011;4615;51.340;8.288;2023-04-21T03:00:37;31.77;;;28.80;;
9160;SDS011;4615;51.340;8.288;2023-04-21T03:03:03;31.25;;;28.33;;
9160;SDS011;4615;51.340;8.288;2023-04-21T03:05:32;29.83;;;27.13;;
9160;SDS011;4615;51.340;8.288;2023-04-21T03:07:58;28.23;;;25.63;;
9160;SDS011;4615;51.340;8.288;2023-04-21T03:10:24;30.38;;;27.58;;
9160;SDS011;4615;51.340;8.288;2023-04-21T03:12:51;30.08;;;27.27;;
9160;SDS011;4615;51.340;8.288;2023-04-21T03:15:17;30.20;;;27.40;;
9160;SDS011;4615;51.340;8.288;2023-04-21T03:17:44;31.00;;;28.10;;
9160;SDS011;4615;51.340;8.288;2023-04-21T03:20:10;31.42;;;28.38;;
9160;SDS011;4615;51.340;8.288;2023-04-21T03:22:38;29.92;;;27.17;;
9160;SDS011;4615;51.340;8.288;2023-04-21T03:25:05;29.75;;;27.05;;
9160;SDS011;4615;51.340;8.288;2023-04-21T03:27:31;30.38;;;27.58;;
9160;SDS011;4615;51.340;8.288;2023-04-21T03:29:58;32.38;;;29.38;;
9160;SDS011;4615;51.340;8.288;2023-04-21T03:32:24;30.13;;;27.42;;
9160;SDS011;4615;51.340;8.288;2023-04-21T03:34:50;32.28;;;29.20;;
9160;SDS011;4615;51.340;8.288;2023-04-21T03:37:17;32.13;;;29.13;;
9160;SDS011;4615;51.340;8.288;2023-04-21T03:39:45;32.22;;;29.25;;
9160;SDS011;4615;51.340;8.288;2023-04-21T03:42:11;33.40;;;30.30;;
9160;SDS011;4615;51.340;8.288;2023-04-21T03:44:37;33.50;;;30.38;;
9160;SDS011;4615;51.340;8.288;2023-04-21T03:47:04;33.20;;;30.10;;
9160;SDS011;4615;51.340;8.288;2023-04-21T03:49:32;33.72;;;30.63;;
9160;SDS011;4615;51.340;8.288;2023-04-21T03:51:59;32.33;;;29.33;;
9160;SDS011;4615;51.340;8.288;2023-04-21T03:54:25;35.65;;;32.28;;
9160;SDS011;4615;51.340;8.288;2023-04-21T03:56:53;31.73;;;28.73;;
9160;SDS011;4615;51.340;8.288;2023-04-21T03:59:19;32.40;;;29.30;;
9160;SDS011;4615;51.340;8.288;2023-04-21T04:01:46;35.05;;;31.67;;
9160;SDS011;4615;51.340;8.288;2023-04-21T04:04:12;33.05;;;29.90;;
9160;SDS011;4615;51.340;8.288;2023-04-21T04:06:38;33.50;;;30.40;;
9160;SDS011;4615;51.340;8.288;2023-04-21T04:09:05;35.83;;;32.35;;
9160;SDS011;4615;51.340;8.288;2023-04-21T04:11:33;35.97;;;32.57;;
9160;SDS011;4615;51.340;8.288;2023-04-21T04:14:00;34.40;;;31.00;;
9160;SDS011;4615;51.340;8.288;2023-04-21T04:16:27;35.60;;;32.20;;
9160;SDS011;4615;51.340;8.288;2023-04-21T04:18:53;36.63;;;33.08;;
9160;SDS011;4615;51.340;8.288;2023-04-21T04:21:20;35.17;;;31.88;;
9160;SDS011;4615;51.340;8.288;2023-04-21T04:23:48;34.03;;;30.85;;
9160;SDS011;4615;51.340;8.288;2023-04-21T04:26:15;33.53;;;30.40;;
9160;SDS011;4615;51.340;8.288;2023-04-21T04:28:42;34.40;;;31.20;;
9160;SDS011;4615;51.340;8.288;2023-04-21T04:31:10;34.38;;;31.05;;
9160;SDS011;4615;51.340;8.288;2023-04-21T04:33:39;33.95;;;30.65;;
9160;SDS011;4615;51.340;8.288;2023-04-21T04:36:06;34.78;;;31.45;;
9160;SDS011;4615;51.340;8.288;2023-04-21T04:38:32;34.67;;;31.38;;
9160;SDS011;4615;51.340;8.288;2023-04-21T04:41:01;34.10;;;30.92;;
9160;SDS011;4615;51.340;8.288;2023-04-21T04:43:27;34.53;;;31.23;;
9160;SDS011;4615;51.340;8.288;2023-04-21T04:45:57;32.88;;;29.80;;
9160;SDS011;4615;51.340;8.288;2023-04-21T04:48:25;33.15;;;30.05;;
9160;SDS011;4615;51.340;8.288;2023-04-21T04:50:51;31.85;;;28.85;;
9160;SDS011;4615;51.340;8.288;2023-04-21T04:53:17;31.53;;;28.63;;
9160;SDS011;4615;51.340;8.288;2023-04-21T04:55:44;33.00;;;29.85;;
9160;SDS011;4615;51.340;8.288;2023-04-21T04:58:11;33.00;;;29.77;;
9160;SDS011;4615;51.340;8.288;2023-04-21T05:00:37;31.83;;;28.90;;
9160;SDS011;4615;51.340;8.288;2023-04-21T05:03:04;32.22;;;29.13;;
9160;SDS011;4615;51.340;8.288;2023-04-21T05:05:32;31.15;;;28.15;;
9160;SDS011;4615;51.340;8.288;2023-04-21T05:07:58;31.05;;;28.00;;
9160;SDS011;4615;51.340;8.288;2023-04-21T05:10:24;31.17;;;28.17;;
9160;SDS011;4615;51.340;8.288;2023-04-21T05:12:51;29.65;;;26.90;;
9160;SDS011;4615;51.340;8.288;2023-04-21T05:15:17;29.35;;;26.67;;
9160;SDS011;4615;51.340;8.288;2023-04-21T05:17:44;30.88;;;27.80;;
9160;SDS011;4615;51.340;8.288;2023-04-21T05:20:11;29.73;;;27.03;;
9160;SDS011;4615;51.340;8.288;2023-04-21T05:22:39;31.15;;;28.10;;
9160;SDS011;4615;51.340;8.288;2023-04-21T05:25:06;29.58;;;26.88;;
9160;SDS011;4615;51.340;8.288;2023-04-21T05:27:32;29.35;;;26.55;;
9160;SDS011;4615;51.340;8.288;2023-04-21T05:29:59;30.27;;;27.40;;
9160;SDS011;4615;51.340;8.288;2023-04-21T05:32:25;30.42;;;27.52;;
9160;SDS011;4615;51.340;8.288;2023-04-21T05:34:53;29.95;;;27.15;;
9160;SDS011;4615;51.340;8.288;2023-04-21T05:37:19;29.60;;;26.85;;
9160;SDS011;4615;51.340;8.288;2023-04-21T05:39:47;28.90;;;26.27;;
9160;SDS011;4615;51.340;8.288;2023-04-21T05:42:13;28.58;;;25.88;;
9160;SDS011;4615;51.340;8.288;2023-04-21T05:44:40;29.67;;;26.83;;
9160;SDS011;4615;51.340;8.288;2023-04-21T05:47:06;29.15;;;26.35;;
9160;SDS011;4615;51.340;8.288;2023-04-21T05:49:32;29.83;;;27.05;;
9160;SDS011;4615;51.340;8.288;2023-04-21T05:51:59;29.37;;;26.67;;
9160;SDS011;4615;51.340;8.288;2023-04-21T05:54:25;28.95;;;26.35;;
9160;SDS011;4615;51.340;8.288;2023-04-21T05:56:53;28.67;;;25.98;;
9160;SDS011;4615;51.340;8.288;2023-04-21T05:59:19;27.98;;;25.45;;
9160;SDS011;4615;51.340;8.288;2023-04-21T06:01:46;28.33;;;25.73;;
9160;SDS011;4615;51.340;8.288;2023-04-21T06:04:12;28.75;;;26.00;;
9160;SDS011;4615;51.340;8.288;2023-04-21T06:06:38;28.67;;;26.00;;
9160;SDS011;4615;51.340;8.288;2023-04-21T06:09:05;26.80;;;24.30;;
9160;SDS011;4615;51.340;8.288;2023-04-21T06:11:32;27.92;;;25.23;;
9160;SDS011;4615;51.340;8.288;2023-04-21T06:13:59;26.65;;;24.13;;
9160;SDS011;4615;51.340;8.288;2023-04-21T06:16:26;26.08;;;23.65;;
9160;SDS011;4615;51.340;8.288;2023-04-21T06:18:53;26.45;;;23.98;;
9160;SDS011;4615;51.340;8.288;2023-04-21T06:21:19;27.00;;;24.50;;
9160;SDS011;4615;51.340;8.288;2023-04-21T06:23:46;24.83;;;22.52;;
9160;SDS011;4615;51.340;8.288;2023-04-21T06:26:12;26.10;;;23.70;;
9160;SDS011;4615;51.340;8.288;2023-04-21T06:28:38;25.65;;;23.25;;
9160;SDS011;4615;51.340;8.288;2023-04-21T06:31:06;25.08;;;22.75;;
9160;SDS011;4615;51.340;8.288;2023-04-21T06:33:33;26.38;;;23.88;;
9160;SDS011;4615;51.340;8.288;2023-04-21T06:36:00;25.50;;;23.00;;
9160;SDS011;4615;51.340;8.288;2023-04-21T06:38:26;25.30;;;22.98;;
9160;SDS011;4615;51.340;8.288;2023-04-21T06:40:53;25.50;;;23.08;;
9160;SDS011;4615;51.340;8.288;2023-04-21T06:43:19;26.15;;;23.63;;
9160;SDS011;4615;51.340;8.288;2023-04-21T06:45:45;25.42;;;23.02;;
9160;SDS011;4615;51.340;8.288;2023-04-21T06:48:13;25.37;;;23.03;;
9160;SDS011;4615;51.340;8.288;2023-04-21T06:50:40;24.87;;;22.53;;
9160;SDS011;4615;51.340;8.288;2023-04-21T06:53:08;25.13;;;22.73;;
9160;SDS011;4615;51.340;8.288;2023-04-21T06:55:35;23.73;;;21.50;;
9160;SDS011;4615;51.340;8.288;2023-04-21T06:58:01;24.73;;;22.40;;
9160;SDS011;4615;51.340;8.288;2023-04-21T07:00:28;24.42;;;22.10;;
9160;SDS011;4615;51.340;8.288;2023-04-21T07:02:54;23.50;;;21.20;;
9160;SDS011;4615;51.340;8.288;2023-04-21T07:05:22;23.10;;;20.87;;
9160;SDS011;4615;51.340;8.288;2023-04-21T07:07:48;22.13;;;20.03;;
9160;SDS011;4615;51.340;8.288;2023-04-21T07:10:15;23.73;;;21.42;;
9160;SDS011;4615;51.340;8.288;2023-04-21T07:12:43;23.10;;;20.80;;
9160;SDS011;4615;51.340;8.288;2023-04-21T07:15:10;24.58;;;22.08;;
9160;SDS011;4615;51.340;8.288;2023-04-21T07:17:36;22.43;;;20.33;;
9160;SDS011;4615;51.340;8.288;2023-04-21T07:20:03;22.25;;;20.08;;
9160;SDS011;4615;51.340;8.288;2023-04-21T07:22:31;22.75;;;20.55;;
9160;SDS011;4615;51.340;8.288;2023-04-21T07:24:58;22.58;;;20.48;;
9160;SDS011;4615;51.340;8.288;2023-04-21T07:27:25;23.25;;;21.05;;
9160;SDS011;4615;51.340;8.288;2023-04-21T07:29:51;23.42;;;21.30;;
9160;SDS011;4615;51.340;8.288;2023-04-21T07:32:17;23.13;;;20.98;;
9160;SDS011;4615;51.340;8.288;2023-04-21T07:34:44;23.23;;;21.02;;
9160;SDS011;4615;51.340;8.288;2023-04-21T07:37:12;21.33;;;19.33;;
9160;SDS011;4615;51.340;8.288;2023-04-21T07:39:40;22.13;;;20.10;;
9160;SDS011;4615;51.340;8.288;2023-04-21T07:42:06;22.38;;;20.30;;
9160;SDS011;4615;51.340;8.288;2023-04-21T07:44:33;22.58;;;20.38;;
9160;SDS011;4615;51.340;8.288;2023-04-21T07:47:00;23.83;;;21.55;;
9160;SDS011;4615;51.340;8.288;2023-04-21T07:49:26;23.23;;;20.92;;
9160;SDS011;4615;51.340;8.288;2023-04-21T07:51:53;22.48;;;20.38;;
9160;SDS011;4615;51.340;8.288;2023-04-21T07:54:19;22.85;;;20.75;;
9160;SDS011;4615;51.340;8.288;2023-04-21T07:56:47;22.42;;;20.33;;
9160;SDS011;4615;51.340;8.288;2023-04-21T07:59:13;22.23;;;20.02;;
9160;SDS011;4615;51.340;8.288;2023-04-21T08:01:40;20.90;;;19.00;;
9160;SDS011;4615;51.340;8.288;2023-04-21T08:04:06;21.95;;;20.00;;
9160;SDS011;4615;51.340;8.288;2023-04-21T08:06:33;21.88;;;19.77;;
9160;SDS011;4615;51.340;8.288;2023-04-21T08:08:59;21.83;;;19.83;;
9160;SDS011;4615;51.340;8.288;2023-04-21T08:11:26;21.85;;;19.85;;
9160;SDS011;4615;51.340;8.288;2023-04-21T08:13:54;21.08;;;19.10;;
9160;SDS011;4615;51.340;8.288;2023-04-21T08:16:21;21.73;;;19.67;;
9160;SDS011;4615;51.340;8.288;2023-04-21T08:18:48;21.65;;;19.55;;
9160;SDS011;4615;51.340;8.288;2023-04-21T08:21:14;21.63;;;19.52;;
9160;SDS011;4615;51.340;8.288;2023-04-21T08:23:40;21.40;;;19.30;;
9160;SDS011;4615;51.340;8.288;2023-04-21T08:26:07;21.48;;;19.38;;
9160;SDS011;4615;51.340;8.288;2023-04-21T08:28:34;21.75;;;19.70;;
9160;SDS011;4615;51.340;8.288;2023-04-21T08:31:01;20.90;;;18.73;;
9160;SDS011;4615;51.340;8.288;2023-04-21T08:33:28;20.27;;;18.38;;
9160;SDS011;4615;51.340;8.288;2023-04-21T08:35:55;19.92;;;18.02;;
9160;SDS011;4615;51.340;8.288;2023-04-21T08:38:21;19.85;;;17.92;;
9160;SDS011;4615;51.340;8.288;2023-04-21T08:40:48;19.17;;;17.42;;
9160;SDS011;4615;51.340;8.288;2023-04-21T08:43:14;19.17;;;17.40;;
9160;SDS011;4615;51.340;8.288;2023-04-21T08:45:40;19.45;;;17.65;;
9160;SDS011;4615;51.340;8.288;2023-04-21T08:48:09;18.75;;;17.05;;
9160;SDS011;4615;51.340;8.288;2023-04-21T08:50:38;18.55;;;16.85;;
9160;SDS011;4615;51.340;8.288;2023-04-21T08:53:05;18.52;;;16.77;;
9160;SDS011;4615;51.340;8.288;2023-04-21T08:55:31;18.90;;;17.10;;
9160;SDS011;4615;51.340;8.288;2023-04-21T08:57:58;19.33;;;17.52;;
9160;SDS011;4615;51.340;8.288;2023-04-21T09:00:24;17.88;;;16.27;;
9160;SDS011;4615;51.340;8.288;2023-04-21T09:02:54;18.25;;;16.65;;
9160;SDS011;4615;51.340;8.288;2023-04-21T09:05:24;17.85;;;16.25;;
9160;SDS011;4615;51.340;8.288;2023-04-21T09:07:54;17.25;;;15.55;;
9160;SDS011;4615;51.340;8.288;2023-04-21T09:10:32;17.00;;;15.48;;
9160;SDS011;4615;51.340;8.288;2023-04-21T09:12:59;17.50;;;15.90;;
9160;SDS011;4615;51.340;8.288;2023-04-21T09:15:33;17.53;;;15.87;;
9160;SDS011;4615;51.340;8.288;2023-04-21T09:18:04;17.45;;;15.65;;
9160;SDS011;4615;51.340;8.288;2023-04-21T09:20:36;16.77;;;15.27;;
9160;SDS011;4615;51.340;8.288;2023-04-21T09:23:03;16.35;;;14.73;;
9160;SDS011;4615;51.340;8.288;2023-04-21T09:25:30;16.83;;;15.23;;
9160;SDS011;4615;51.340;8.288;2023-04-21T09:27:56;16.52;;;15.02;;
9160;SDS011;4615;51.340;8.288;2023-04-21T09:30:23;16.48;;;14.88;;
9160;SDS011;4615;51.340;8.288;2023-04-21T09:32:49;16.05;;;14.55;;
9160;SDS011;4615;51.340;8.288;2023-04-21T09:35:16;16.15;;;14.60;;
9160;SDS011;4615;51.340;8.288;2023-04-21T09:37:44;15.60;;;14.10;;
9160;SDS011;4615;51.340;8.288;2023-04-21T09:40:12;15.63;;;14.13;;
9160;SDS011;4615;51.340;8.288;2023-04-21T09:42:38;15.97;;;14.47;;
9160;SDS011;4615;51.340;8.288;2023-04-21T09:45:05;15.10;;;13.80;;
9160;SDS011;4615;51.340;8.288;2023-04-21T09:47:34;14.00;;;12.70;;
9160;SDS011;4615;51.340;8.288;2023-04-21T09:50:04;16.20;;;14.50;;
9160;SDS011;4615;51.340;8.288;2023-04-21T09:52:31;16.23;;;14.57;;
9160;SDS011;4615;51.340;8.288;2023-04-21T09:55:00;15.85;;;14.23;;
9160;SDS011;4615;51.340;8.288;2023-04-21T09:57:28;14.50;;;13.20;;
9160;SDS011;4615;51.340;8.288;2023-04-21T09:59:59;14.70;;;13.30;;
9160;SDS011;4615;51.340;8.288;2023-04-21T10:02:25;13.27;;;12.07;;
9160;SDS011;4615;51.340;8.288;2023-04-21T10:04:55;13.48;;;12.18;;
9160;SDS011;4615;51.340;8.288;2023-04-21T10:07:21;13.38;;;12.07;;
9160;SDS011;4615;51.340;8.288;2023-04-21T10:09:49;13.75;;;12.45;;
9160;SDS011;4615;51.340;8.288;2023-04-21T10:12:17;13.40;;;12.00;;
9160;SDS011;4615;51.340;8.288;2023-04-21T10:14:44;13.43;;;12.07;;
9160;SDS011;4615;51.340;8.288;2023-04-21T10:17:10;12.13;;;11.02;;
9160;SDS011;4615;51.340;8.288;2023-04-21T10:19:37;11.73;;;10.73;;
9160;SDS011;4615;51.340;8.288;2023-04-21T10:22:12;12.80;;;11.60;;
9160;SDS011;4615;51.340;8.288;2023-04-21T10:24:39;11.32;;;10.32;;
9160;SDS011;4615;51.340;8.288;2023-04-21T10:27:08;11.95;;;10.85;;
9160;SDS011;4615;51.340;8.288;2023-04-21T10:29:36;12.48;;;11.27;;
9160;SDS011;4615;51.340;8.288;2023-04-21T10:32:03;12.07;;;10.93;;
9160;SDS011;4615;51.340;8.288;2023-04-21T10:34:33;11.73;;;10.63;;
9160;SDS011;4615;51.340;8.288;2023-04-21T10:37:07;12.00;;;10.83;;
9160;SDS011;4615;51.340;8.288;2023-04-21T10:39:35;12.50;;;11.30;;
9160;SDS011;4615;51.340;8.288;2023-04-21T10:42:17;11.57;;;10.48;;
9160;SDS011;4615;51.340;8.288;2023-04-21T10:44:51;12.63;;;11.43;;
9160;SDS011;4615;51.340;8.288;2023-04-21T10:47:23;11.57;;;10.48;;
9160;SDS011;4615;51.340;8.288;2023-04-21T10:49:49;11.63;;;10.52;;
9160;SDS011;4615;51.340;8.288;2023-04-21T10:52:16;10.83;;;9.83;;
9160;SDS011;4615;51.340;8.288;2023-04-21T10:57:26;10.63;;;9.52;;
9160;SDS011;4615;51.340;8.288;2023-04-21T10:59:58;11.03;;;10.03;;
9160;SDS011;4615;51.340;8.288;2023-04-21T11:02:25;11.07;;;9.98;;
9160;SDS011;4615;51.340;8.288;2023-04-21T11:04:52;11.37;;;10.27;;
9160;SDS011;4615;51.340;8.288;2023-04-21T11:07:18;11.07;;;10.07;;
9160;SDS011;4615;51.340;8.288;2023-04-21T11:09:46;11.23;;;10.20;;
9160;SDS011;4615;51.340;8.288;2023-04-21T11:12:14;9.87;;;8.97;;
9160;SDS011;4615;51.340;8.288;2023-04-21T11:14:43;9.90;;;8.90;;
9160;SDS011;4615;51.340;8.288;2023-04-21T11:17:12;9.43;;;8.48;;
9160;SDS011;4615;51.340;8.288;2023-04-21T11:19:38;8.38;;;7.68;;
9160;SDS011;4615;51.340;8.288;2023-04-21T11:22:05;8.40;;;7.60;;
9160;SDS011;4615;51.340;8.288;2023-04-21T11:24:31;8.37;;;7.57;;
9160;SDS011;4615;51.340;8.288;2023-04-21T11:26:58;8.15;;;7.35;;
9160;SDS011;4615;51.340;8.288;2023-04-21T11:29:26;8.80;;;8.10;;
9160;SDS011;4615;51.340;8.288;2023-04-21T11:31:53;8.87;;;8.07;;
9160;SDS011;4615;51.340;8.288;2023-04-21T11:34:21;9.05;;;8.15;;
9160;SDS011;4615;51.340;8.288;2023-04-21T11:36:49;8.47;;;7.60;;
9160;SDS011;4615;51.340;8.288;2023-04-21T11:39:15;8.88;;;8.00;;
9160;SDS011;4615;51.340;8.288;2023-04-21T11:41:44;9.10;;;8.20;;
9160;SDS011;4615;51.340;8.288;2023-04-21T11:44:11;9.57;;;8.00;;
9160;SDS011;4615;51.340;8.288;2023-04-21T11:46:43;8.60;;;7.80;;
9160;SDS011;4615;51.340;8.288;2023-04-21T11:49:10;8.43;;;7.55;;
9160;SDS011;4615;51.340;8.288;2023-04-21T11:51:39;8.38;;;7.63;;
9160;SDS011;4615;51.340;8.288;2023-04-21T11:54:06;8.77;;;7.97;;
9160;SDS011;4615;51.340;8.288;2023-04-21T11:56:35;9.05;;;7.70;;
9160;SDS011;4615;51.340;8.288;2023-04-21T11:59:05;8.75;;;7.43;;
9160;SDS011;4615;51.340;8.288;2023-04-21T12:01:31;9.15;;;7.70;;
9160;SDS011;4615;51.340;8.288;2023-04-21T12:03:58;8.23;;;7.53;;
9160;SDS011;4615;51.340;8.288;2023-04-21T12:06:25;7.78;;;7.07;;
9160;SDS011;4615;51.340;8.288;2023-04-21T12:08:58;8.00;;;7.20;;
9160;SDS011;4615;51.340;8.288;2023-04-21T12:11:25;9.20;;;8.17;;
9160;SDS011;4615;51.340;8.288;2023-04-21T12:13:52;8.07;;;7.28;;
9160;SDS011;4615;51.340;8.288;2023-04-21T12:16:19;8.52;;;7.63;;
9160;SDS011;4615;51.340;8.288;2023-04-21T12:18:46;8.63;;;7.82;;
9160;SDS011;4615;51.340;8.288;2023-04-21T12:21:13;9.10;;;7.90;;
9160;SDS011;4615;51.340;8.288;2023-04-21T12:23:40;8.38;;;7.57;;
9160;SDS011;4615;51.340;8.288;2023-04-21T12:26:10;10.18;;;7.93;;
9160;SDS011;4615;51.340;8.288;2023-04-21T12:28:36;8.65;;;7.75;;
9160;SDS011;4615;51.340;8.288;2023-04-21T12:31:03;14.63;;;7.70;;
9160;SDS011;4615;51.340;8.288;2023-04-21T12:33:29;8.32;;;7.53;;
9160;SDS011;4615;51.340;8.288;2023-04-21T12:35:55;9.63;;;7.65;;
9160;SDS011;4615;51.340;8.288;2023-04-21T12:38:23;9.10;;;7.90;;
9160;SDS011;4615;51.340;8.288;2023-04-21T12:40:50;8.50;;;7.63;;
9160;SDS011;4615;51.340;8.288;2023-04-21T12:43:17;8.85;;;7.80;;
9160;SDS011;4615;51.340;8.288;2023-04-21T12:45:44;8.35;;;7.50;;
9160;SDS011;4615;51.340;8.288;2023-04-21T12:48:10;8.10;;;7.30;;
9160;SDS011;4615;51.340;8.288;2023-04-21T12:50:37;8.45;;;7.65;;
9160;SDS011;4615;51.340;8.288;2023-04-21T12:53:03;8.25;;;7.45;;
9160;SDS011;4615;51.340;8.288;2023-04-21T12:55:29;8.10;;;7.30;;
9160;SDS011;4615;51.340;8.288;2023-04-21T12:57:56;8.18;;;7.38;;
9160;SDS011;4615;51.340;8.288;2023-04-21T13:00:24;8.52;;;7.72;;
9160;SDS011;4615;51.340;8.288;2023-04-21T13:02:50;8.07;;;7.28;;
9160;SDS011;4615;51.340;8.288;2023-04-21T13:05:17;8.73;;;7.80;;
9160;SDS011;4615;51.340;8.288;2023-04-21T13:07:43;8.50;;;7.70;;
9160;SDS011;4615;51.340;8.288;2023-04-21T13:10:10;8.95;;;8.05;;
9160;SDS011;4615;51.340;8.288;2023-04-21T13:12:36;8.52;;;7.70;;
9160;SDS011;4615;51.340;8.288;2023-04-21T13:15:03;7.93;;;7.17;;
9160;SDS011;4615;51.340;8.288;2023-04-21T13:17:31;9.48;;;7.63;;
9160;SDS011;4615;51.340;8.288;2023-04-21T13:19:57;7.88;;;7.18;;
9160;SDS011;4615;51.340;8.288;2023-04-21T13:22:24;7.82;;;7.07;;
9160;SDS011;4615;51.340;8.288;2023-04-21T13:24:50;7.90;;;7.15;;
9160;SDS011;4615;51.340;8.288;2023-04-21T13:27:17;8.02;;;7.22;;
9160;SDS011;4615;51.340;8.288;2023-04-21T13:29:43;8.60;;;7.80;;
9160;SDS011;4615;51.340;8.288;2023-04-21T13:32:11;8.73;;;7.90;;
9160;SDS011;4615;51.340;8.288;2023-04-21T13:34:39;8.73;;;7.93;;
9160;SDS011;4615;51.340;8.288;2023-04-21T13:37:05;8.30;;;7.40;;
9160;SDS011;4615;51.340;8.288;2023-04-21T13:39:35;9.82;;;7.60;;
9160;SDS011;4615;51.340;8.288;2023-04-21T13:42:01;7.90;;;7.10;;
9160;SDS011;4615;51.340;8.288;2023-04-21T13:44:27;9.10;;;8.10;;
9160;SDS011;4615;51.340;8.288;2023-04-21T13:46:54;9.13;;;8.20;;
9160;SDS011;4615;51.340;8.288;2023-04-21T13:49:21;8.68;;;7.88;;
9160;SDS011;4615;51.340;8.288;2023-04-21T13:51:49;9.60;;;7.67;;
9160;SDS011;4615;51.340;8.288;2023-04-21T13:54:15;8.18;;;7.38;;
9160;SDS011;4615;51.340;8.288;2023-04-21T13:56:41;9.93;;;7.90;;
9160;SDS011;4615;51.340;8.288;2023-04-21T13:59:08;8.43;;;7.22;;
9160;SDS011;4615;51.340;8.288;2023-04-21T14:01:38;8.85;;;7.88;;
9160;SDS011;4615;51.340;8.288;2023-04-21T14:04:05;8.93;;;8.03;;
9160;SDS011;4615;51.340;8.288;2023-04-21T14:06:32;8.50;;;7.70;;
9160;SDS011;4615;51.340;8.288;2023-04-21T14:09:00;9.38;;;8.48;;
9160;SDS011;4615;51.340;8.288;2023-04-21T14:11:26;8.30;;;7.50;;
9160;SDS011;4615;51.340;8.288;2023-04-21T14:13:52;7.82;;;7.00;;
9160;SDS011;4615;51.340;8.288;2023-04-21T14:16:19;10.48;;;7.85;;
9160;SDS011;4615;51.340;8.288;2023-04-21T14:18:45;8.15;;;7.32;;
9160;SDS011;4615;51.340;8.288;2023-04-21T14:21:11;8.43;;;7.47;;
9160;SDS011;4615;51.340;8.288;2023-04-21T14:23:38;8.85;;;7.47;;
9160;SDS011;4615;51.340;8.288;2023-04-21T14:26:06;9.27;;;7.78;;
9160;SDS011;4615;51.340;8.288;2023-04-21T14:28:32;8.25;;;7.20;;
9160;SDS011;4615;51.340;8.288;2023-04-21T14:30:59;8.75;;;7.80;;
9160;SDS011;4615;51.340;8.288;2023-04-21T14:33:26;8.10;;;7.30;;
9160;SDS011;4615;51.340;8.288;2023-04-21T14:35:53;8.13;;;7.32;;
9160;SDS011;4615;51.340;8.288;2023-04-21T14:38:19;7.85;;;7.13;;
9160;SDS011;4615;51.340;8.288;2023-04-21T14:40:45;7.80;;;6.93;;
9160;SDS011;4615;51.340;8.288;2023-04-21T14:43:15;7.78;;;7.00;;
9160;SDS011;4615;51.340;8.288;2023-04-21T14:45:41;8.05;;;6.70;;
9160;SDS011;4615;51.340;8.288;2023-04-21T14:48:07;7.90;;;6.90;;
9160;SDS011;4615;51.340;8.288;2023-04-21T14:50:35;7.53;;;6.80;;
9160;SDS011;4615;51.340;8.288;2023-04-21T14:53:02;9.77;;;7.18;;
9160;SDS011;4615;51.340;8.288;2023-04-21T14:55:28;7.40;;;6.65;;
9160;SDS011;4615;51.340;8.288;2023-04-21T14:57:55;8.00;;;6.60;;